sensor_id;sensor_type;location;lat;lon;timestamp;pressure;altitude;pressure_sealevel;temperature
74321;BMP280;62738;45.772;4.804;2022-08-06T00:00:47;-23895.34;;;25.00
74321;BMP280;62738;45.772;4.804;2022-08-06T00:03:35;-23900.69;;;25.11
74321;BMP280;62738;45.772;4.804;2022-08-06T00:06:22;-23887.59;;;24.84
74321;BMP280;62738;45.772;4.804;2022-08-06T00:09:15;-23893.19;;;24.95
74321;BMP280;62738;45.772;4.804;2022-08-06T00:12:08;-23892.22;;;24.93
74321;BMP280;62738;45.772;4.804;2022-08-06T00:15:06;-23879.81;;;24.68
74321;BMP280;62738;45.772;4.804;2022-08-06T00:17:58;-23874.00;;;24.56
74321;BMP280;62738;45.772;4.804;2022-08-06T00:20:46;-23872.28;;;24.52
74321;BMP280;62738;45.772;4.804;2022-08-06T00:23:36;-23878.38;;;24.65
74321;BMP280;62738;45.772;4.804;2022-08-06T00:26:41;-23875.94;;;24.60
74321;BMP280;62738;45.772;4.804;2022-08-06T00:29:37;-23864.28;;;24.36
74321;BMP280;62738;45.772;4.804;2022-08-06T00:32:33;-23880.56;;;24.69
74321;BMP280;62738;45.772;4.804;2022-08-06T00:35:20;-23881.53;;;24.71
74321;BMP280;62738;45.772;4.804;2022-08-06T00:38:14;-23882.72;;;24.74
74321;BMP280;62738;45.772;4.804;2022-08-06T00:41:02;-23875.94;;;24.60
74321;BMP280;62738;45.772;4.804;2022-08-06T00:43:53;-23886.88;;;24.82
74321;BMP280;62738;45.772;4.804;2022-08-06T00:46:42;-23879.81;;;24.68
74321;BMP280;62738;45.772;4.804;2022-08-06T00:49:30;-23881.28;;;24.71
74321;BMP280;62738;45.772;4.804;2022-08-06T00:52:35;-23891.00;;;24.91
74321;BMP280;62738;45.772;4.804;2022-08-06T00:55:25;-23885.66;;;24.80
74321;BMP280;62738;45.772;4.804;2022-08-06T00:58:17;-23892.44;;;24.94
74321;BMP280;62738;45.772;4.804;2022-08-06T01:01:04;-23889.78;;;24.88
74321;BMP280;62738;45.772;4.804;2022-08-06T01:04:02;-23908.97;;;25.28
74321;BMP280;62738;45.772;4.804;2022-08-06T01:06:49;-23881.28;;;24.71
74321;BMP280;62738;45.772;4.804;2022-08-06T01:09:43;-23882.97;;;24.74
74321;BMP280;62738;45.772;4.804;2022-08-06T01:12:44;-23900.22;;;25.10
74321;BMP280;62738;45.772;4.804;2022-08-06T01:15:32;-23884.91;;;24.78
74321;BMP280;62738;45.772;4.804;2022-08-06T01:19:03;-23872.06;;;24.52
74321;BMP280;62738;45.772;4.804;2022-08-06T01:25:42;-23867.44;;;24.43
74321;BMP280;62738;45.772;4.804;2022-08-06T01:28:45;-23868.16;;;24.44
74321;BMP280;62738;45.772;4.804;2022-08-06T01:31:48;-23871.81;;;24.52
74321;BMP280;62738;45.772;4.804;2022-08-06T01:34:40;-23844.88;;;23.96
74321;BMP280;62738;45.772;4.804;2022-08-06T01:37:50;-23873.03;;;24.54
74321;BMP280;62738;45.772;4.804;2022-08-06T01:40:41;-23874.47;;;24.57
74321;BMP280;62738;45.772;4.804;2022-08-06T01:43:31;-23849.72;;;24.06
74321;BMP280;62738;45.772;4.804;2022-08-06T01:46:42;-23855.06;;;24.17
74321;BMP280;62738;45.772;4.804;2022-08-06T01:49:33;-23856.53;;;24.20
74321;BMP280;62738;45.772;4.804;2022-08-06T01:52:43;-23851.66;;;24.10
74321;BMP280;62738;45.772;4.804;2022-08-06T01:55:48;-23839.03;;;23.84
74321;BMP280;62738;45.772;4.804;2022-08-06T01:58:45;-23849.47;;;24.06
74321;BMP280;62738;45.772;4.804;2022-08-06T02:01:35;-23846.31;;;23.99
74321;BMP280;62738;45.772;4.804;2022-08-06T02:04:40;-23840.97;;;23.88
74321;BMP280;62738;45.772;4.804;2022-08-06T02:07:33;-23843.16;;;23.93
74321;BMP280;62738;45.772;4.804;2022-08-06T02:10:43;-23848.25;;;24.03
74321;BMP280;62738;45.772;4.804;2022-08-06T02:13:33;-23848.25;;;24.03
74321;BMP280;62738;45.772;4.804;2022-08-06T02:16:35;-23843.16;;;23.93
74321;BMP280;62738;45.772;4.804;2022-08-06T02:19:29;-23844.63;;;23.96
74321;BMP280;62738;45.772;4.804;2022-08-06T02:22:39;-23845.84;;;23.98
74321;BMP280;62738;45.772;4.804;2022-08-06T02:25:28;-23849.72;;;24.06
74321;BMP280;62738;45.772;4.804;2022-08-06T02:28:23;-23853.38;;;24.14
74321;BMP280;62738;45.772;4.804;2022-08-06T02:31:11;-23840.50;;;23.87
74321;BMP280;62738;45.772;4.804;2022-08-06T02:33:59;-23850.44;;;24.08
74321;BMP280;62738;45.772;4.804;2022-08-06T02:37:10;-23838.56;;;23.83
74321;BMP280;62738;45.772;4.804;2022-08-06T02:40:17;-23840.97;;;23.88
74321;BMP280;62738;45.772;4.804;2022-08-06T02:43:19;-23857.50;;;24.22
74321;BMP280;62738;45.772;4.804;2022-08-06T02:46:19;-23841.22;;;23.89
74321;BMP280;62738;45.772;4.804;2022-08-06T02:49:20;-23850.69;;;24.08
74321;BMP280;62738;45.772;4.804;2022-08-06T02:52:22;-23845.59;;;23.98
74321;BMP280;62738;45.772;4.804;2022-08-06T02:55:25;-23853.84;;;24.15
74321;BMP280;62738;45.772;4.804;2022-08-06T02:58:29;-23846.81;;;24.00
74321;BMP280;62738;45.772;4.804;2022-08-06T03:01:29;-23848.75;;;24.04
74321;BMP280;62738;45.772;4.804;2022-08-06T03:04:31;-23831.75;;;23.70
74321;BMP280;62738;45.772;4.804;2022-08-06T03:07:20;-23834.44;;;23.75
74321;BMP280;62738;45.772;4.804;2022-08-06T03:10:16;-23850.44;;;24.08
74321;BMP280;62738;45.772;4.804;2022-08-06T03:13:11;-23842.69;;;23.92
74321;BMP280;62738;45.772;4.804;2022-08-06T03:16:00;-23850.44;;;24.08
74321;BMP280;62738;45.772;4.804;2022-08-06T03:18:49;-23848.50;;;24.04
74321;BMP280;62738;45.772;4.804;2022-08-06T03:21:58;-23843.16;;;23.93
74321;BMP280;62738;45.772;4.804;2022-08-06T03:24:46;-23824.00;;;23.54
74321;BMP280;62738;45.772;4.804;2022-08-06T03:27:37;-23834.44;;;23.75
74321;BMP280;62738;45.772;4.804;2022-08-06T03:30:30;-23842.91;;;23.92
74321;BMP280;62738;45.772;4.804;2022-08-06T03:33:20;-23841.94;;;23.90
74321;BMP280;62738;45.772;4.804;2022-08-06T03:36:27;-23837.56;;;23.81
74321;BMP280;62738;45.772;4.804;2022-08-06T03:39:15;-23836.84;;;23.80
74321;BMP280;62738;45.772;4.804;2022-08-06T03:42:08;-23838.31;;;23.83
74321;BMP280;62738;45.772;4.804;2022-08-06T03:44:58;-23815.72;;;23.37
74321;BMP280;62738;45.772;4.804;2022-08-06T03:47:53;-23832.00;;;23.70
74321;BMP280;62738;45.772;4.804;2022-08-06T03:50:54;-23823.00;;;23.52
74321;BMP280;62738;45.772;4.804;2022-08-06T03:53:45;-23812.81;;;23.31
74321;BMP280;62738;45.772;4.804;2022-08-06T03:56:37;-23813.56;;;23.32
74321;BMP280;62738;45.772;4.804;2022-08-06T03:59:27;-23824.72;;;23.55
74321;BMP280;62738;45.772;4.804;2022-08-06T04:02:28;-23813.78;;;23.33
74321;BMP280;62738;45.772;4.804;2022-08-06T04:05:32;-23826.44;;;23.59
74321;BMP280;62738;45.772;4.804;2022-08-06T04:08:21;-23808.47;;;23.22
74321;BMP280;62738;45.772;4.804;2022-08-06T04:11:16;-23812.59;;;23.30
74321;BMP280;62738;45.772;4.804;2022-08-06T04:14:23;-23794.13;;;22.93
74321;BMP280;62738;45.772;4.804;2022-08-06T04:17:15;-23802.38;;;23.09
74321;BMP280;62738;45.772;4.804;2022-08-06T04:20:08;-23811.59;;;23.28
74321;BMP280;62738;45.772;4.804;2022-08-06T04:22:55;-23800.69;;;23.06
74321;BMP280;62738;45.772;4.804;2022-08-06T04:25:57;-23806.50;;;23.18
74321;BMP280;62738;45.772;4.804;2022-08-06T04:28:48;-23801.66;;;23.08
74321;BMP280;62738;45.772;4.804;2022-08-06T04:31:46;-23812.09;;;23.29
74321;BMP280;62738;45.772;4.804;2022-08-06T04:34:55;-23800.69;;;23.06
74321;BMP280;62738;45.772;4.804;2022-08-06T04:38:03;-23795.84;;;22.96
74321;BMP280;62738;45.772;4.804;2022-08-06T04:40:50;-23797.28;;;22.99
74321;BMP280;62738;45.772;4.804;2022-08-06T04:43:40;-23788.31;;;22.81
74321;BMP280;62738;45.772;4.804;2022-08-06T04:46:38;-23775.44;;;22.54
74321;BMP280;62738;45.772;4.804;2022-08-06T04:49:27;-23784.19;;;22.72
74321;BMP280;62738;45.772;4.804;2022-08-06T04:52:34;-23788.06;;;22.80
74321;BMP280;62738;45.772;4.804;2022-08-06T04:55:35;-23794.38;;;22.93
74321;BMP280;62738;45.772;4.804;2022-08-06T04:58:23;-23797.78;;;23.00
74321;BMP280;62738;45.772;4.804;2022-08-06T05:01:19;-23786.59;;;22.77
74321;BMP280;62738;45.772;4.804;2022-08-06T05:04:06;-23782.72;;;22.69
74321;BMP280;62738;45.772;4.804;2022-08-06T05:09:51;-23798.72;;;23.02
74321;BMP280;62738;45.772;4.804;2022-08-06T05:12:46;-23790.25;;;22.85
74321;BMP280;62738;45.772;4.804;2022-08-06T05:15:38;-23792.94;;;22.90
74321;BMP280;62738;45.772;4.804;2022-08-06T05:18:42;-23771.56;;;22.46
74321;BMP280;62738;45.772;4.804;2022-08-06T05:21:50;-23777.38;;;22.58
74321;BMP280;62738;45.772;4.804;2022-08-06T05:24:58;-23767.69;;;22.38
74321;BMP280;62738;45.772;4.804;2022-08-06T05:27:55;-23777.88;;;22.59
74321;BMP280;62738;45.772;4.804;2022-08-06T05:30:57;-23732.97;;;21.67
74321;BMP280;62738;45.772;4.804;2022-08-06T05:33:45;-23740.25;;;21.82
74321;BMP280;62738;45.772;4.804;2022-08-06T05:36:32;-23744.38;;;21.91
74321;BMP280;62738;45.772;4.804;2022-08-06T05:39:19;-23743.88;;;21.90
74321;BMP280;62738;45.772;4.804;2022-08-06T05:42:26;-23743.88;;;21.90
74321;BMP280;62738;45.772;4.804;2022-08-06T05:45:15;-23723.50;;;21.48
74321;BMP280;62738;45.772;4.804;2022-08-06T05:48:09;-23739.03;;;21.80
74321;BMP280;62738;45.772;4.804;2022-08-06T05:51:01;-23738.56;;;21.79
74321;BMP280;62738;45.772;4.804;2022-08-06T05:53:58;-23751.41;;;22.05
74321;BMP280;62738;45.772;4.804;2022-08-06T05:56:53;-23746.31;;;21.95
74321;BMP280;62738;45.772;4.804;2022-08-06T06:00:00;-23750.94;;;22.04
74321;BMP280;62738;45.772;4.804;2022-08-06T06:02:53;-23773.75;;;22.51
74321;BMP280;62738;45.772;4.804;2022-08-06T06:05:41;-23744.63;;;21.91
74321;BMP280;62738;45.772;4.804;2022-08-06T06:08:49;-23757.47;;;22.17
74321;BMP280;62738;45.772;4.804;2022-08-06T06:11:45;-23728.34;;;21.58
74321;BMP280;62738;45.772;4.804;2022-08-06T06:14:49;-23758.69;;;22.20
74321;BMP280;62738;45.772;4.804;2022-08-06T06:18:17;-23732.97;;;21.67
74321;BMP280;62738;45.772;4.804;2022-08-06T06:21:49;-23735.16;;;21.72
74321;BMP280;62738;45.772;4.804;2022-08-06T06:24:43;-23756.28;;;22.15
74321;BMP280;62738;45.772;4.804;2022-08-06T06:27:46;-23742.91;;;21.88
74321;BMP280;62738;45.772;4.804;2022-08-06T06:30:42;-23748.50;;;21.99
74321;BMP280;62738;45.772;4.804;2022-08-06T06:37:03;-23748.25;;;21.99
74321;BMP280;62738;45.772;4.804;2022-08-06T06:46:04;-23757.00;;;22.17
74321;BMP280;62738;45.772;4.804;2022-08-06T06:49:21;-23757.97;;;22.18
74321;BMP280;62738;45.772;4.804;2022-08-06T06:52:34;-23745.34;;;21.93
74321;BMP280;62738;45.772;4.804;2022-08-06T06:55:34;-23757.97;;;22.18
74321;BMP280;62738;45.772;4.804;2022-08-06T06:58:47;-23736.13;;;21.74
74321;BMP280;62738;45.772;4.804;2022-08-06T07:01:36;-23761.13;;;22.25
74321;BMP280;62738;45.772;4.804;2022-08-06T07:04:26;-23764.53;;;22.32
74321;BMP280;62738;45.772;4.804;2022-08-06T07:07:15;-23799.72;;;23.04
74321;BMP280;62738;45.772;4.804;2022-08-06T07:10:12;-23820.59;;;23.47
74321;BMP280;62738;45.772;4.804;2022-08-06T07:13:01;-23818.66;;;23.43
74321;BMP280;62738;45.772;4.804;2022-08-06T07:16:02;-23789.03;;;22.82
74321;BMP280;62738;45.772;4.804;2022-08-06T07:18:52;-23777.63;;;22.59
74321;BMP280;62738;45.772;4.804;2022-08-06T07:21:42;-23804.31;;;23.13
74321;BMP280;62738;45.772;4.804;2022-08-06T07:24:40;-23794.13;;;22.93
74321;BMP280;62738;45.772;4.804;2022-08-06T07:27:35;-23815.97;;;23.37
74321;BMP280;62738;45.772;4.804;2022-08-06T07:30:31;-23818.16;;;23.42
74321;BMP280;62738;45.772;4.804;2022-08-06T07:33:20;-23821.56;;;23.49
74321;BMP280;62738;45.772;4.804;2022-08-06T07:36:08;-23814.75;;;23.35
74321;BMP280;62738;45.772;4.804;2022-08-06T07:39:06;-23787.59;;;22.79
74321;BMP280;62738;45.772;4.804;2022-08-06T07:41:55;-23783.19;;;22.70
74321;BMP280;62738;45.772;4.804;2022-08-06T07:45:01;-23814.50;;;23.34
74321;BMP280;62738;45.772;4.804;2022-08-06T07:47:51;-23826.44;;;23.59
74321;BMP280;62738;45.772;4.804;2022-08-06T07:50:47;-23830.06;;;23.66
74321;BMP280;62738;45.772;4.804;2022-08-06T07:53:38;-23813.31;;;23.32
74321;BMP280;62738;45.772;4.804;2022-08-06T07:56:45;-23823.75;;;23.53
74321;BMP280;62738;45.772;4.804;2022-08-06T07:59:49;-23804.06;;;23.13
74321;BMP280;62738;45.772;4.804;2022-08-06T08:02:41;-23792.44;;;22.89
74321;BMP280;62738;45.772;4.804;2022-08-06T08:05:48;-23808.69;;;23.22
74321;BMP280;62738;45.772;4.804;2022-08-06T08:08:57;-23806.25;;;23.17
74321;BMP280;62738;45.772;4.804;2022-08-06T08:11:46;-23830.78;;;23.68
74321;BMP280;62738;45.772;4.804;2022-08-06T08:14:53;-23816.69;;;23.39
74321;BMP280;62738;45.772;4.804;2022-08-06T08:17:45;-23842.69;;;23.92
74321;BMP280;62738;45.772;4.804;2022-08-06T08:20:44;-23861.38;;;24.30
74321;BMP280;62738;45.772;4.804;2022-08-06T08:23:39;-23852.63;;;24.12
74321;BMP280;62738;45.772;4.804;2022-08-06T08:26:32;-23852.16;;;24.11
74321;BMP280;62738;45.772;4.804;2022-08-06T08:29:40;-23865.25;;;24.38
74321;BMP280;62738;45.772;4.804;2022-08-06T08:32:41;-23881.78;;;24.72
74321;BMP280;62738;45.772;4.804;2022-08-06T08:35:32;-23869.38;;;24.47
74321;BMP280;62738;45.772;4.804;2022-08-06T08:38:23;-23867.69;;;24.43
74321;BMP280;62738;45.772;4.804;2022-08-06T08:41:26;-23877.38;;;24.63
74321;BMP280;62738;45.772;4.804;2022-08-06T08:44:35;-23885.91;;;24.80
74321;BMP280;62738;45.772;4.804;2022-08-06T08:47:22;-23888.81;;;24.86
74321;BMP280;62738;45.772;4.804;2022-08-06T08:50:29;-23881.03;;;24.70
74321;BMP280;62738;45.772;4.804;2022-08-06T08:53:25;-23888.56;;;24.86
74321;BMP280;62738;45.772;4.804;2022-08-06T08:56:32;-23895.13;;;24.99
74321;BMP280;62738;45.772;4.804;2022-08-06T08:59:40;-23893.19;;;24.95
74321;BMP280;62738;45.772;4.804;2022-08-06T09:02:47;-23911.38;;;25.32
74321;BMP280;62738;45.772;4.804;2022-08-06T09:05:36;-23904.09;;;25.18
74321;BMP280;62738;45.772;4.804;2022-08-06T09:08:33;-23907.50;;;25.25
74321;BMP280;62738;45.772;4.804;2022-08-06T09:11:40;-23910.19;;;25.30
74321;BMP280;62738;45.772;4.804;2022-08-06T09:14:47;-23917.47;;;25.45
74321;BMP280;62738;45.772;4.804;2022-08-06T09:17:34;-23924.97;;;25.60
74321;BMP280;62738;45.772;4.804;2022-08-06T09:20:42;-23908.22;;;25.26
74321;BMP280;62738;45.772;4.804;2022-08-06T09:23:31;-23920.84;;;25.52
74321;BMP280;62738;45.772;4.804;2022-08-06T09:26:34;-23912.84;;;25.35
74321;BMP280;62738;45.772;4.804;2022-08-06T09:32:55;-23932.75;;;25.76
74321;BMP280;62738;45.772;4.804;2022-08-06T09:35:57;-23953.88;;;26.19
74321;BMP280;62738;45.772;4.804;2022-08-06T09:38:47;-23954.38;;;26.20
74321;BMP280;62738;45.772;4.804;2022-08-06T09:41:45;-23933.25;;;25.77
74321;BMP280;62738;45.772;4.804;2022-08-06T09:44:33;-23939.06;;;25.89
74321;BMP280;62738;45.772;4.804;2022-08-06T09:47:27;-23932.03;;;25.75
74321;BMP280;62738;45.772;4.804;2022-08-06T09:50:38;-23946.34;;;26.04
74321;BMP280;62738;45.772;4.804;2022-08-06T09:53:29;-23924.97;;;25.60
74321;BMP280;62738;45.772;4.804;2022-08-06T09:56:36;-23951.69;;;26.15
74321;BMP280;62738;45.772;4.804;2022-08-06T09:59:41;-23953.16;;;26.18
74321;BMP280;62738;45.772;4.804;2022-08-06T10:02:32;-23972.09;;;26.57
74321;BMP280;62738;45.772;4.804;2022-08-06T10:05:23;-23989.56;;;26.92
74321;BMP280;62738;45.772;4.804;2022-08-06T10:08:15;-23982.78;;;26.78
74321;BMP280;62738;45.772;4.804;2022-08-06T10:11:08;-23984.72;;;26.82
74321;BMP280;62738;45.772;4.804;2022-08-06T10:13:58;-23983.03;;;26.79
74321;BMP280;62738;45.772;4.804;2022-08-06T10:17:09;-24007.06;;;27.28
74321;BMP280;62738;45.772;4.804;2022-08-06T10:20:10;-24019.69;;;27.54
74321;BMP280;62738;45.772;4.804;2022-08-06T10:23:08;-24048.84;;;28.13
74321;BMP280;62738;45.772;4.804;2022-08-06T10:25:56;-24058.06;;;28.32
74321;BMP280;62738;45.772;4.804;2022-08-06T10:28:51;-24028.94;;;27.73
74321;BMP280;62738;45.772;4.804;2022-08-06T10:31:38;-24029.41;;;27.74
74321;BMP280;62738;45.772;4.804;2022-08-06T10:34:29;-24021.66;;;27.58
74321;BMP280;62738;45.772;4.804;2022-08-06T10:37:19;-24013.13;;;27.41
74321;BMP280;62738;45.772;4.804;2022-08-06T10:40:28;-24015.31;;;27.45
74321;BMP280;62738;45.772;4.804;2022-08-06T10:43:17;-24029.16;;;27.73
74321;BMP280;62738;45.772;4.804;2022-08-06T10:46:07;-24032.09;;;27.79
74321;BMP280;62738;45.772;4.804;2022-08-06T10:48:58;-24019.94;;;27.54
74321;BMP280;62738;45.772;4.804;2022-08-06T10:52:06;-24038.88;;;27.93
74321;BMP280;62738;45.772;4.804;2022-08-06T10:54:54;-24042.53;;;28.01
74321;BMP280;62738;45.772;4.804;2022-08-06T10:57:43;-24042.03;;;28.00
74321;BMP280;62738;45.772;4.804;2022-08-06T11:00:33;-24051.28;;;28.18
74321;BMP280;62738;45.772;4.804;2022-08-06T11:03:47;-24064.63;;;28.46
74321;BMP280;62738;45.772;4.804;2022-08-06T11:16:38;-24046.41;;;28.09
74321;BMP280;62738;45.772;4.804;2022-08-06T11:22:43;-24069.47;;;28.56
74321;BMP280;62738;45.772;4.804;2022-08-06T11:31:33;-24083.34;;;28.84
74321;BMP280;62738;45.772;4.804;2022-08-06T11:34:40;-24080.91;;;28.79
74321;BMP280;62738;45.772;4.804;2022-08-06T11:37:44;-24062.44;;;28.41
74321;BMP280;62738;45.772;4.804;2022-08-06T11:40:58;-24081.88;;;28.81
74321;BMP280;62738;45.772;4.804;2022-08-06T11:47:06;-24070.47;;;28.58
74321;BMP280;62738;45.772;4.804;2022-08-06T11:49:54;-24066.81;;;28.50
74321;BMP280;62738;45.772;4.804;2022-08-06T11:52:43;-24088.69;;;28.95
74321;BMP280;62738;45.772;4.804;2022-08-06T11:55:30;-24090.63;;;28.99
74321;BMP280;62738;45.772;4.804;2022-08-06T11:58:25;-24112.97;;;29.44
74321;BMP280;62738;45.772;4.804;2022-08-06T12:01:12;-24105.44;;;29.29
74321;BMP280;62738;45.772;4.804;2022-08-06T12:07:28;-24064.38;;;28.45
74321;BMP280;62738;45.772;4.804;2022-08-06T12:10:22;-24110.53;;;29.40
74321;BMP280;62738;45.772;4.804;2022-08-06T12:13:37;-24120.50;;;29.60
74321;BMP280;62738;45.772;4.804;2022-08-06T12:16:42;-24104.47;;;29.27
74321;BMP280;62738;45.772;4.804;2022-08-06T12:19:48;-24109.56;;;29.38
74321;BMP280;62738;45.772;4.804;2022-08-06T12:22:49;-24129.50;;;29.78
74321;BMP280;62738;45.772;4.804;2022-08-06T12:25:44;-24131.91;;;29.83
74321;BMP280;62738;45.772;4.804;2022-08-06T12:28:32;-24114.66;;;29.48
74321;BMP280;62738;45.772;4.804;2022-08-06T12:31:34;-24110.53;;;29.40
74321;BMP280;62738;45.772;4.804;2022-08-06T12:34:38;-24119.75;;;29.58
74321;BMP280;62738;45.772;4.804;2022-08-06T12:37:40;-24121.72;;;29.62
74321;BMP280;62738;45.772;4.804;2022-08-06T12:40:37;-24130.69;;;29.81
74321;BMP280;62738;45.772;4.804;2022-08-06T12:43:27;-24125.34;;;29.70
74321;BMP280;62738;45.772;4.804;2022-08-06T12:46:32;-24135.31;;;29.90
74321;BMP280;62738;45.772;4.804;2022-08-06T12:49:29;-24120.75;;;29.60
74321;BMP280;62738;45.772;4.804;2022-08-06T12:52:29;-24126.56;;;29.72
74321;BMP280;62738;45.772;4.804;2022-08-06T12:55:17;-24166.16;;;30.53
74321;BMP280;62738;45.772;4.804;2022-08-06T12:58:08;-24140.91;;;30.02
74321;BMP280;62738;45.772;4.804;2022-08-06T13:01:21;-24140.16;;;30.00
74321;BMP280;62738;45.772;4.804;2022-08-06T13:04:28;-24145.53;;;30.11
74321;BMP280;62738;45.772;4.804;2022-08-06T13:07:17;-24154.75;;;30.30
74321;BMP280;62738;45.772;4.804;2022-08-06T13:10:10;-24154.28;;;30.29
74321;BMP280;62738;45.772;4.804;2022-08-06T13:13:18;-24140.16;;;30.00
74321;BMP280;62738;45.772;4.804;2022-08-06T13:16:25;-24160.59;;;30.42
74321;BMP280;62738;45.772;4.804;2022-08-06T13:19:15;-24159.13;;;30.39
74321;BMP280;62738;45.772;4.804;2022-08-06T13:22:05;-24164.47;;;30.50
74321;BMP280;62738;45.772;4.804;2022-08-06T13:25:12;-24173.47;;;30.68
74321;BMP280;62738;45.772;4.804;2022-08-06T13:28:21;-24167.38;;;30.56
74321;BMP280;62738;45.772;4.804;2022-08-06T13:31:19;-24181.47;;;30.84
74321;BMP280;62738;45.772;4.804;2022-08-06T13:34:26;-24173.22;;;30.68
74321;BMP280;62738;45.772;4.804;2022-08-06T13:37:14;-24198.72;;;31.20
74321;BMP280;62738;45.772;4.804;2022-08-06T13:40:01;-24198.00;;;31.18
74321;BMP280;62738;45.772;4.804;2022-08-06T13:42:56;-24212.56;;;31.48
74321;BMP280;62738;45.772;4.804;2022-08-06T13:45:45;-24190.72;;;31.03
74321;BMP280;62738;45.772;4.804;2022-08-06T13:48:50;-24198.47;;;31.19
74321;BMP280;62738;45.772;4.804;2022-08-06T13:51:38;-24208.19;;;31.39
74321;BMP280;62738;45.772;4.804;2022-08-06T13:54:39;-24193.63;;;31.09
74321;BMP280;62738;45.772;4.804;2022-08-06T13:57:29;-24192.16;;;31.06
74321;BMP280;62738;45.772;4.804;2022-08-06T14:00:30;-24191.19;;;31.04
74321;BMP280;62738;45.772;4.804;2022-08-06T14:03:24;-24193.16;;;31.08
74321;BMP280;62738;45.772;4.804;2022-08-06T14:06:12;-24197.75;;;31.18
74321;BMP280;62738;45.772;4.804;2022-08-06T14:09:03;-24246.59;;;32.17
74321;BMP280;62738;45.772;4.804;2022-08-06T14:12:07;-24370.03;;;34.69
74321;BMP280;62738;45.772;4.804;2022-08-06T14:14:57;-24519.94;;;37.75
74321;BMP280;62738;45.772;4.804;2022-08-06T14:17:45;-24530.16;;;37.96
74321;BMP280;62738;45.772;4.804;2022-08-06T14:20:32;-24597.47;;;39.33
74321;BMP280;62738;45.772;4.804;2022-08-06T14:23:19;-24623.94;;;39.87
74321;BMP280;62738;45.772;4.804;2022-08-06T14:26:09;-24556.16;;;38.49
74321;BMP280;62738;45.772;4.804;2022-08-06T14:28:58;-24596.97;;;39.32
74321;BMP280;62738;45.772;4.804;2022-08-06T14:32:08;-24688.09;;;41.17
74321;BMP280;62738;45.772;4.804;2022-08-06T14:34:56;-24658.44;;;40.57
74321;BMP280;62738;45.772;4.804;2022-08-06T14:37:49;-24663.56;;;40.67
74321;BMP280;62738;45.772;4.804;2022-08-06T14:40:42;-24582.63;;;39.03
74321;BMP280;62738;45.772;4.804;2022-08-06T14:43:49;-24587.75;;;39.13
74321;BMP280;62738;45.772;4.804;2022-08-06T14:46:55;-24615.44;;;39.69
74321;BMP280;62738;45.772;4.804;2022-08-06T14:49:45;-24571.47;;;38.80
74321;BMP280;62738;45.772;4.804;2022-08-06T14:52:37;-24625.41;;;39.90
74321;BMP280;62738;45.772;4.804;2022-08-06T14:55:25;-24689.31;;;41.20
74321;BMP280;62738;45.772;4.804;2022-08-06T14:58:16;-24669.38;;;40.79
74321;BMP280;62738;45.772;4.804;2022-08-06T15:01:05;-24635.38;;;40.10
74321;BMP280;62738;45.772;4.804;2022-08-06T15:04:03;-24581.19;;;39.00
74321;BMP280;62738;45.772;4.804;2022-08-06T15:07:10;-24659.19;;;40.58
74321;BMP280;62738;45.772;4.804;2022-08-06T15:10:12;-24592.59;;;39.23
74321;BMP280;62738;45.772;4.804;2022-08-06T15:13:14;-24655.78;;;40.51
74321;BMP280;62738;45.772;4.804;2022-08-06T15:16:01;-24603.78;;;39.46
74321;BMP280;62738;45.772;4.804;2022-08-06T15:18:49;-24609.63;;;39.57
74321;BMP280;62738;45.772;4.804;2022-08-06T15:21:56;-24526.75;;;37.89
74321;BMP280;62738;45.772;4.804;2022-08-06T15:24:46;-24573.16;;;38.83
74321;BMP280;62738;45.772;4.804;2022-08-06T15:27:33;-24557.13;;;38.51
74321;BMP280;62738;45.772;4.804;2022-08-06T15:30:21;-24567.34;;;38.71
74321;BMP280;62738;45.772;4.804;2022-08-06T15:33:11;-24539.16;;;38.14
74321;BMP280;62738;45.772;4.804;2022-08-06T15:35:59;-24613.50;;;39.65
74321;BMP280;62738;45.772;4.804;2022-08-06T15:38:46;-24618.59;;;39.76
74321;BMP280;62738;45.772;4.804;2022-08-06T15:41:34;-24615.69;;;39.70
74321;BMP280;62738;45.772;4.804;2022-08-06T15:44:26;-24713.34;;;41.69
74321;BMP280;62738;45.772;4.804;2022-08-06T15:47:27;-24559.06;;;38.54
74321;BMP280;62738;45.772;4.804;2022-08-06T15:50:24;-24362.25;;;34.53
74321;BMP280;62738;45.772;4.804;2022-08-06T15:53:26;-24306.38;;;33.39
74321;BMP280;62738;45.772;4.804;2022-08-06T15:56:16;-24276.97;;;32.79
74321;BMP280;62738;45.772;4.804;2022-08-06T15:59:03;-24267.00;;;32.59
74321;BMP280;62738;45.772;4.804;2022-08-06T16:01:57;-24233.00;;;31.90
74321;BMP280;62738;45.772;4.804;2022-08-06T16:04:51;-24203.81;;;31.30
74321;BMP280;62738;45.772;4.804;2022-08-06T16:07:40;-24271.13;;;32.67
74321;BMP280;62738;45.772;4.804;2022-08-06T16:10:44;-24443.41;;;36.19
74321;BMP280;62738;45.772;4.804;2022-08-06T16:13:32;-24517.28;;;37.69
74321;BMP280;62738;45.772;4.804;2022-08-06T16:16:19;-24573.41;;;38.84
74321;BMP280;62738;45.772;4.804;2022-08-06T16:19:13;-24505.84;;;37.46
74321;BMP280;62738;45.772;4.804;2022-08-06T16:22:07;-24501.47;;;37.37
74321;BMP280;62738;45.772;4.804;2022-08-06T16:24:55;-24563.94;;;38.64
74321;BMP280;62738;45.772;4.804;2022-08-06T16:27:42;-24555.66;;;38.48
74321;BMP280;62738;45.772;4.804;2022-08-06T16:30:34;-24562.72;;;38.62
74321;BMP280;62738;45.772;4.804;2022-08-06T16:33:41;-24528.94;;;37.93
74321;BMP280;62738;45.772;4.804;2022-08-06T16:36:41;-24544.50;;;38.25
74321;BMP280;62738;45.772;4.804;2022-08-06T16:39:29;-24625.91;;;39.91
74321;BMP280;62738;45.772;4.804;2022-08-06T16:42:22;-24582.63;;;39.03
74321;BMP280;62738;45.772;4.804;2022-08-06T16:45:10;-24555.19;;;38.47
74321;BMP280;62738;45.772;4.804;2022-08-06T16:48:00;-24558.09;;;38.53
74321;BMP280;62738;45.772;4.804;2022-08-06T16:51:07;-24455.31;;;36.43
74321;BMP280;62738;45.772;4.804;2022-08-06T16:54:21;-24487.63;;;37.09
74321;BMP280;62738;45.772;4.804;2022-08-06T16:57:08;-24487.38;;;37.08
74321;BMP280;62738;45.772;4.804;2022-08-06T16:59:56;-24497.34;;;37.29
74321;BMP280;62738;45.772;4.804;2022-08-06T17:02:46;-24477.41;;;36.88
74321;BMP280;62738;45.772;4.804;2022-08-06T17:05:34;-24494.69;;;37.23
74321;BMP280;62738;45.772;4.804;2022-08-06T17:08:38;-24498.09;;;37.30
74321;BMP280;62738;45.772;4.804;2022-08-06T17:11:27;-24519.72;;;37.74
74321;BMP280;62738;45.772;4.804;2022-08-06T17:14:33;-24503.19;;;37.41
74321;BMP280;62738;45.772;4.804;2022-08-06T17:17:20;-24590.66;;;39.19
74321;BMP280;62738;45.772;4.804;2022-08-06T17:20:22;-24461.88;;;36.56
74321;BMP280;62738;45.772;4.804;2022-08-06T17:23:15;-24456.78;;;36.46
74321;BMP280;62738;45.772;4.804;2022-08-06T17:26:04;-24476.94;;;36.87